METAR Data
IDs: Format: Raw Decoded Include TAF

Data at: 1643 UTC 30 Oct 2020

KOXC 301620Z 01011KT 2SM -SN BR OVC007 01/00 A2991 RMK AO2 VIS 1V5 P0000
KOXC 301611Z 02008KT 1 3/4SM -SN BR OVC007 01/00 A2991 RMK AO2 VIS 3/4V3 P0000
KOXC 301551Z 01012KT 2 1/2SM -SN BR BKN007 OVC011 01/00 A2989 RMK AO2 SLP138 P0004 T00060000
KOXC 301538Z 01010KT 2SM -SN BR BKN007 OVC011 01/00 A2989 RMK AO2 CIG 004V010 P0004
KOXC 301451Z 01011KT 1 1/2SM -SN BR OVC005 00/00 A2986 RMK AO2 SLP129 P0005 60012 T00000000 51030
KOXC 301428Z 02014G19KT 1SM -SN BR OVC005 00/00 A2985 RMK AO2 CIG 004V010 P0003
KOXC 301351Z 03011G18KT 3/4SM -SN BR OVC007 00/00 A2984 RMK AO2 CIG 004V011 SLP121 P0003 T00000000
KOXC 301344Z 02012KT 3/4SM -SN BR OVC005 00/00 A2983 RMK AO2 CIG 004V008 P0003
KOXC 301334Z 02011G17KT 1SM -SN BR OVC005 00/00 A2983 RMK AO2 CIG 004V008 P0003
KOXC 301311Z 02011KT 3/4SM -SN BR BKN005 OVC009 01/01 A2983 RMK AO2 CIG 004V007 PRESRR P0001
KOXC 301251Z 02013KT 1SM -SN BR OVC007 01/01 A2980 RMK AO2 CIG 004V008 SLP108 P0004 T00060006
KOXC 301205Z 02014G19KT 1 1/2SM -SN BR OVC007 01/01 A2978 RMK AO2 VIS 1V3 CIG 005V011 P0001
KOXC 301158Z 02012KT 2SM -SN BR OVC007 01/01 A2977 RMK AO2 CIG 005V011 P0000
KOXC 301151Z 01012KT 3SM -SN BR OVC007 01/01 A2977 RMK AO2 CIG 005V011 SLP099 P0007 60021 70147 T00060006 10044 20006 53025
KOXC 301051Z 01013G21KT 7SM -SN OVC007 02/01 A2975 RMK AO2 PK WND 03027/1011 RAE17UPB28E31B49E51SNB17E28B31E49B51 CIG 006V010 PRESRR SLP092 P0006 T00170011
KOXC 300951Z AUTO 03013G22KT 8SM -RA OVC007 03/02 A2972 RMK AO2 CIG 007V013 SLP079 P0003 T00280022
KOXC 300851Z AUTO 03014G20KT 5SM -RA BR OVC007 03/03 A2970 RMK AO2 CIG 006V011 SLP073 P0002 60005 T00330028 50006
KOXC 300751Z AUTO 02014G20KT 6SM -RA BR OVC007 04/03 A2972 RMK AO2 CIG 006V011 SLP080 P0002 T00390033
KOXC 300651Z AUTO 04013G18KT 6SM -RA BR OVC007 04/04 A2970 RMK AO2 CIG 007V011 PRESRR SLP074 P0001 T00440039
KOXC 300551Z AUTO 02014KT 3SM -RA BR OVC007 04/04 A2968 RMK AO2 CIG 005V011 SLP066 P0002 60011 T00440044 10061 20044 53009
KOXC 300451Z AUTO 03013G20KT 5SM -RA BR OVC007 05/05 A2965 RMK AO2 PRESFR SLP057 P0001 T00500050 400890050
KOXC 300351Z AUTO 02014G25KT 5SM -RA BR OVC007 06/05 A2966 RMK AO2 SLP060 P0001 T00560050
KOXC 300251Z AUTO 02012G23KT 6SM -RA BR OVC007 06/05 A2965 RMK AO2 SLP057 P0002 60007 T00560050 53007
KOXC 300151Z AUTO 04013G24KT 5SM -RA BR OVC007 06/06 A2963 RMK AO2 PK WND 02029/0129 CIG 006V010 PRESRR SLP050 P0003 T00560056
KOXC 300051Z 04018G26KT 7SM -RA OVC007 06/06 A2960 RMK AO2 PK WND 04028/2358 SLP039 P0002 T00610061
KOXC 292351Z 03018G24KT 6SM -RA BR OVC007 06/06 A2963 RMK AO2 PK WND 04026/2320 SLP048 P0012 60054 T00610061 10072 20061 55008
KOXC 292251Z 03016G27KT 3SM -RA BR OVC007 07/07 A2963 RMK AO2 PK WND 02028/2212 SLP046 P0004 T00670067
KOXC 292151Z 03018G23KT 3SM -RA BR OVC005 07/07 A2964 RMK AO2 SLP052 P0009 T00670067
KOXC 292051Z 07010G18KT 2 1/2SM -RA BR OVC005 07/07 A2966 RMK AO2 CIG 004V007 SLP057 P0008 60029 T00670067 56034
KOXC 291951Z 06013G18KT 4SM -RA BR OVC007 07/07 A2968 RMK AO2 CIG 004V011 SLP067 P0009 T00670067
KOXC 291851Z 07010KT 3SM RA BR FEW005 BKN008 OVC043 07/07 A2973 RMK AO2 SLP080 P0012 T00670067
KOXC 291817Z 06009KT 6SM RA BR FEW005 BKN008 OVC043 07/07 A2975 RMK AO2 P0005
KOXC 291758Z 05008KT 5SM RA BR FEW008 SCT018 OVC043 07/07 A2975 RMK AO2 P0001
KOXC 291751Z 07008KT 3SM RA BR BKN006 BKN018 OVC037 07/07 A2976 RMK AO2 SLP092 P0013 60061 T00670067 10083 20067 58037
KOXC 291724Z 07007KT 5SM RA BR BKN006 OVC040 07/07 A2978 RMK AO2 CIG 004V008 PRESFR P0006
KOXC 291716Z 05008KT 5SM RA BR OVC004 07/07 A2979 RMK AO2 CIG 004V010 P0004
KOXC 291651Z 08005KT 5SM RA BR BKN006 BKN015 OVC060 07/07 A2980 RMK AO2 SLP104 P0010 T00720072
KOXC 291645Z 07004KT 5SM RA BR BKN006 BKN015 OVC060 07/07 A2981 RMK AO2 P0009
KOXC 291640Z 08005KT 4SM RA BR FEW006 BKN045 OVC060 07/07 A2982 RMK AO2 P0008
KOXC 291630Z 09007KT 5SM RA BR SCT008 BKN017 OVC060 07/07 A2981 RMK AO2 CIG 014V026 PRESFR P0007
KOXC 291551Z VRB03KT 4SM RA BR BKN008 BKN011 OVC046 07/07 A2988 RMK AO2 SLP132 P0016 T00720072
KOXC 291541Z 10005KT 3SM RA BR BKN008 BKN013 OVC046 07/07 A2986 RMK AO2 CIG 006V011 P0014
KOXC 291538Z 10006KT 2 1/2SM RA BR SCT008 BKN013 OVC046 07/07 A2986 RMK AO2 P0013
KOXC 291533Z 12005KT 2 1/2SM RA BR SCT008 SCT014 OVC046 07/07 A2987 RMK AO2 VIS 2V3 P0011
KOXC 291521Z 10006KT 3SM RA BR FEW008 BKN046 OVC060 07/07 A2986 RMK AO2 P0007
KOXC 291451Z 08004KT 3SM RA BR OVC048 07/07 A2987 RMK AO2 SLP129 P0012 60022 T00720072 58015
KOXC 291351Z 07005KT 4SM -RA BR OVC050 08/08 A2990 RMK AO2 SLP140 P0008 T00780078
KOXC 291251Z 10004KT 7SM -RA BKN070 OVC090 08/07 A2992 RMK AO2 SLP146 P0002 T00780072
KOXC 291151Z 04004KT 10SM -RA SCT060 OVC100 08/07 A2991 RMK AO2 RAB15 SLP142 P0000 60000 70018 T00830067 10089 20072 58007
KOXC 291051Z 05009KT 10SM FEW065 OVC090 09/07 A2992 RMK AO2 RAE11 SLP145 P0000 T00890067
KOXC 290951Z 00000KT 10SM -RA BKN085 OVC110 08/08 A2994 RMK AO2 RAB44 SLP152 P0000 T00830078
KOXC 290851Z AUTO 00000KT 10SM FEW110 08/08 A2993 RMK AO2 SLP150 T00780078 58005
KOXC 290751Z AUTO 00000KT 10SM CLR 08/08 A2994 RMK AO2 SLP152 T00780078
KOXC 290651Z AUTO 00000KT 10SM CLR 08/08 A2995 RMK AO2 SLP156 T00830083
KOXC 290551Z AUTO 36005KT 10SM CLR 08/08 A2995 RMK AO2 SLP155 T00830083 10100 20078 58007
KOXC 290451Z AUTO 00000KT 10SM CLR 09/09 A2996 RMK AO2 SLP158 T00890089 401110067